logo
Search for airport 
image banner adimage banner adimage banner ad
image banner ad

VT06 - Santa's

Located in Putney, United States

ICAO - VT06, IATA -

Data provided by Airmate  

General information

Coordinates: N43°0'16" W72°28'25"
Elevation is 673 feet MSL.
Magnetic variation is -15° East
View others Airports in Vermont

Operational data

Special qualification required
Current time UTC:
Current local time:
Weather at : KEEN - Dillant/Hopkins ( 20 km )
METAR: KEEN 131656Z AUTO 29011G16KT 270V330 10SM BKN045 OVC070 09/00 A2946 RMK AO2 RAE02 SLP981 P0000 T00940000 $
View NOTAMs / SUP AIP / TFR affecting this airport [VIEW]
Communications frequencies: [VIEW]

Runways:

RWY identifierQFULength (ft)Width (ft)SurfaceLDA (ft)
17250050GRASS
35250050GRASS

Airport contact information

Address: Putney United States

Satellite view of VT06